Terminal Aerodrome Forecast
Issued by NWS

Home | Current Version | Previous Version | Graphics & Text | Print | Product List | Glossary On
Versions: 1 2 3 4 5 6 7 8 9 10 11 12
000
FTUS43 KICT 210520
TAFHUT
TAF
KHUT 210520Z 2106/2206 06006KT P6SM FEW050
     FM210900 17009KT P6SM FEW050
     FM211400 17014G20KT P6SM FEW060
     FM211700 18020G28KT P6SM FEW060=

USA.gov is the U.S. government's official web portal to all federal, state and local government web resources and services.